createdAt,value
2018-11-20T00:04:16.024Z,5.97
2018-11-20T01:06:14.976Z,6.00
2018-11-20T01:08:53.588Z,6.10
2018-11-20T01:11:28.351Z,6.27
2018-11-20T01:14:02.770Z,5.90
2018-11-20T01:16:38.655Z,6.87
2018-11-20T01:19:36.453Z,6.63
2018-11-20T01:26:35.301Z,6.47
2018-11-20T01:29:19.761Z,6.40
2018-11-20T01:32:00.453Z,6.90
2018-11-20T01:34:33.987Z,7.07
2018-11-20T01:37:20.434Z,7.73
2018-11-20T01:45:28.582Z,8.20
2018-11-20T01:48:03.414Z,7.77
2018-11-20T01:50:38.637Z,8.33
2018-11-20T01:57:26.631Z,7.93
2018-11-20T02:00:06.558Z,7.00
2018-11-20T02:02:45.155Z,8.23
2018-11-20T02:07:26.195Z,8.37
2018-11-20T02:13:00.380Z,8.40
2018-11-20T02:15:40.254Z,7.80
2018-11-20T02:18:16.168Z,8.30
2018-11-20T02:20:54.306Z,8.60
2018-11-20T02:23:29.617Z,8.33
2018-11-20T02:26:06.179Z,8.77
2018-11-20T02:28:40.022Z,8.50
2018-11-20T02:31:13.849Z,9.00
2018-11-20T02:33:48.669Z,8.47
2018-11-20T02:36:25.081Z,8.60
2018-11-20T02:39:00.718Z,8.33
2018-11-20T02:41:34.177Z,9.17
2018-11-20T02:44:10.574Z,8.63
2018-11-20T02:46:49.889Z,9.60
2018-11-20T02:49:24.356Z,10.43
2018-11-20T02:51:59.900Z,10.40
2018-11-20T02:55:37.969Z,10.50
2018-11-20T02:58:16.556Z,10.67
2018-11-20T03:01:50.516Z,10.20
2018-11-20T03:04:36.948Z,10.93
2018-11-20T03:07:11.792Z,11.37
2018-11-20T03:09:45.773Z,11.70
2018-11-20T03:12:25.482Z,11.83
2018-11-20T04:26:34.511Z,11.73
2018-11-20T04:29:40.655Z,11.20
2018-11-20T05:02:54.307Z,12.57
2018-11-20T05:06:37.371Z,11.10
2018-11-20T05:09:18.816Z,11.73
2018-11-20T05:11:54.556Z,11.17
2018-11-20T05:14:38.610Z,11.47
2018-11-20T05:17:29.248Z,12.03
2018-11-20T05:20:03.882Z,11.90
2018-11-20T05:25:41.465Z,11.67
2018-11-20T05:28:27.235Z,11.93
2018-11-20T05:31:34.478Z,11.37
2018-11-20T05:34:09.963Z,12.30
2018-11-20T05:36:50.100Z,11.87
2018-11-20T05:39:37.746Z,12.30
2018-11-20T06:08:01.440Z,11.60
2018-11-20T06:13:43.141Z,11.63
2018-11-20T06:16:34.899Z,11.83
2018-11-20T06:19:09.947Z,11.60
2018-11-20T06:21:49.352Z,12.60
2018-11-20T06:25:09.576Z,11.43
2018-11-20T06:30:38.893Z,12.37
2018-11-20T06:33:12.492Z,12.13
2018-11-20T06:37:50.847Z,12.83
2018-11-20T06:40:26.786Z,13.07
2018-11-20T06:43:05.853Z,12.90
2018-11-20T06:45:39.717Z,12.10
2018-11-20T06:48:14.214Z,12.93
2018-11-20T06:52:49.903Z,11.60
2018-11-20T06:55:25.284Z,11.60
2018-11-20T06:58:10.902Z,12.33
2018-11-20T07:00:47.232Z,12.90
2018-11-20T07:03:21.353Z,12.80
2018-11-20T07:05:55.243Z,11.57
2018-11-20T07:17:09.087Z,11.63
2018-11-20T07:19:43.851Z,12.10
2018-11-20T07:22:23.013Z,13.00
2018-11-20T07:24:56.383Z,13.10
2018-11-20T07:29:34.921Z,11.80
2018-11-20T07:32:12.433Z,12.53
2018-11-20T07:34:46.556Z,12.40
2018-11-20T07:37:24.003Z,13.90
2018-11-20T07:42:05.095Z,12.57
2018-11-20T07:46:40.588Z,13.37
2018-11-20T07:49:15.208Z,13.37
2018-11-20T07:51:48.700Z,12.77
2018-11-20T07:54:22.229Z,13.67
2018-11-20T07:59:21.292Z,12.77
2018-11-20T08:02:00.060Z,12.90
2018-11-20T08:04:37.631Z,12.53
2018-11-20T08:07:11.491Z,12.97
2018-11-20T08:11:46.227Z,12.67
2018-11-20T08:14:55.798Z,13.20
2018-11-20T08:17:34.437Z,12.30
2018-11-20T08:20:08.197Z,13.60
2018-11-20T08:24:47.687Z,13.97
2018-11-20T08:27:20.454Z,13.97
2018-11-20T08:31:55.259Z,14.40
2018-11-20T08:36:29.961Z,13.50
2018-11-20T08:39:38.480Z,14.13
2018-11-20T08:42:12.211Z,14.60
2018-11-20T08:44:45.781Z,14.27
2018-11-20T08:47:19.373Z,14.47
2018-11-20T08:50:08.254Z,14.83
2018-11-20T08:52:44.949Z,15.37
2018-11-20T08:57:19.572Z,15.57
2018-11-20T09:00:07.850Z,14.13
2018-11-20T09:04:43.939Z,15.97
2018-11-20T09:09:22.678Z,16.50
2018-11-20T09:11:55.494Z,16.33
2018-11-20T09:14:37.344Z,16.57
2018-11-20T09:17:23.014Z,17.07
2018-11-20T09:20:01.888Z,17.10
2018-11-20T09:24:39.769Z,17.53
2018-11-20T09:27:31.680Z,18.00
2018-11-20T09:30:07.661Z,18.27
2018-11-20T09:32:41.426Z,17.47
2018-11-20T09:37:16.041Z,17.60
2018-11-20T09:39:55.167Z,17.53
2018-11-20T09:42:30.955Z,18.40
2018-11-20T09:45:10.232Z,17.03
2018-11-20T09:49:47.772Z,18.13
2018-11-20T09:52:53.637Z,18.53
2018-11-20T09:55:27.687Z,17.90
2018-11-20T09:58:01.699Z,19.07
2018-11-20T10:00:35.565Z,19.53
2018-11-20T10:03:10.190Z,19.50
2018-11-20T10:05:45.183Z,19.37
2018-11-20T10:08:26.786Z,19.87
2018-11-20T10:11:08.013Z,18.17
2018-11-20T10:13:47.354Z,19.23
2018-11-20T10:17:25.495Z,19.60
2018-11-20T10:22:04.887Z,18.87
2018-11-20T10:24:39.016Z,20.27
2018-11-20T10:27:14.582Z,19.07
2018-11-20T10:29:48.932Z,19.63
2018-11-20T10:36:38.097Z,20.43
2018-11-20T10:41:17.395Z,19.70
2018-11-20T10:43:56.600Z,19.47
2018-11-20T10:46:30.947Z,20.27
2018-11-20T10:49:05.502Z,21.27
2018-11-20T10:51:38.301Z,20.13
2018-11-20T10:54:13.246Z,20.53
2018-11-20T10:56:48.949Z,20.53
2018-11-20T11:01:23.945Z,20.83
2018-11-20T11:03:57.989Z,19.40
2018-11-20T11:06:30.136Z,20.13
2018-11-20T11:09:04.063Z,20.63
2018-11-20T11:12:02.871Z,20.20
2018-11-20T11:14:41.985Z,19.50
2018-11-20T11:17:46.783Z,20.07
2018-11-20T11:22:24.445Z,19.97
2018-11-20T11:25:05.629Z,19.67
2018-11-20T11:27:47.593Z,20.53
2018-11-20T11:30:29.926Z,19.90
2018-11-20T11:33:04.275Z,20.50
2018-11-20T11:36:09.135Z,20.47
2018-11-20T11:38:47.698Z,19.77
2018-11-20T11:41:21.552Z,18.80
2018-11-20T11:43:55.899Z,19.67
2018-11-20T11:46:34.743Z,19.70
2018-11-20T11:49:08.433Z,19.43
2018-11-20T11:51:58.684Z,19.90
2018-11-20T11:54:35.716Z,20.10
2018-11-20T11:57:17.204Z,19.80
